Time;durP1;ratioP1;P1;durP2;ratioP2;P2;SDS_P1;SDS_P2;PMS_P1;PMS_P2;Temp;Humidity;BMP_temperature;BMP_pressure;BME280_temperature;BME280_humidity;BME280_pressure;Samples;Min_cycle;Max_cycle;Signal;HPM_P1;HPM_P2
2023/12/30 07:13:28;;;;;;;12.45;7.65;;;;;;;-1.46;100.00;97900.81;1120782;71;11932536;-63
2023/12/30 07:16:00;;;;;;;10.75;7.45;;;;;;;-1.38;100.00;97906.94;1221339;75;2935130;-62
2023/12/30 07:18:33;;;;;;;8.35;5.95;;;;;;;-1.26;100.00;97901.13;1221178;75;2939546;-63
2023/12/30 07:21:07;;;;;;;8.05;5.10;;;;;;;-1.21;100.00;97908.00;1222453;75;2964723;-66
2023/12/30 07:23:40;;;;;;;7.10;4.35;;;;;;;-1.11;100.00;97904.50;1222076;75;2932282;-63
2023/12/30 07:26:13;;;;;;;6.45;4.30;;;;;;;-1.05;100.00;97902.97;1223709;75;2921520;-63
2023/12/30 07:28:48;;;;;;;13.20;8.65;;;;;;;-1.17;100.00;97906.84;1223016;83;2919934;-65
2023/12/30 07:31:21;;;;;;;10.20;7.00;;;;;;;-0.91;100.00;97910.94;1223360;75;2920232;-63
2023/12/30 07:33:54;;;;;;;8.60;6.15;;;;;;;-0.77;100.00;97920.06;1222774;83;2931287;-63
2023/12/30 07:36:27;;;;;;;9.65;6.10;;;;;;;-0.79;100.00;97917.03;1222990;75;2920497;-62
2023/12/30 07:39:00;;;;;;;10.25;7.10;;;;;;;-0.86;100.00;97923.97;1223079;75;2929522;-63
2023/12/30 07:41:32;;;;;;;17.40;11.90;;;;;;;-0.72;100.00;97933.09;1222746;75;2927643;-64
2023/12/30 07:44:08;;;;;;;12.00;8.50;;;;;;;-0.80;100.00;97940.44;1223379;75;2916641;-63
2023/12/30 07:46:41;;;;;;;36.05;22.45;;;;;;;-0.72;100.00;97933.09;1222227;75;2945739;-62
2023/12/30 07:49:15;;;;;;;51.45;30.30;;;;;;;-0.07;100.00;97938.81;1223519;75;2929923;-64
2023/12/30 07:51:48;;;;;;;39.50;24.95;;;;;;;-0.07;100.00;97928.81;1222279;75;2921995;-65
2023/12/30 07:54:21;;;;;;;32.70;20.30;;;;;;;0.09;100.00;97919.44;1222517;75;2925075;-65
2023/12/30 07:56:54;;;;;;;27.15;17.45;;;;;;;0.33;100.00;97915.72;1223471;75;2919143;-64
2023/12/30 07:59:29;;;;;;;21.35;14.15;;;;;;;0.22;100.00;97920.47;1222810;75;2918694;-62
2023/12/30 08:02:02;;;;;;;16.35;10.95;;;;;;;0.33;100.00;97920.34;1221507;75;2943260;-63
2023/12/30 08:04:35;;;;;;;14.95;9.65;;;;;;;0.41;100.00;97921.81;1223274;75;2919420;-65
2023/12/30 08:07:08;;;;;;;11.50;7.45;;;;;;;0.52;100.00;97922.47;1220838;75;2946125;-64
2023/12/30 08:09:40;;;;;;;9.10;6.25;;;;;;;0.55;100.00;97918.19;1221976;75;2935441;-66
2023/12/30 08:12:14;;;;;;;9.20;6.20;;;;;;;0.64;100.00;97913.09;1221803;75;2950004;-63
2023/12/30 08:14:49;;;;;;;7.65;5.40;;;;;;;0.77;100.00;97911.41;1221562;75;2923497;-64
2023/12/30 08:17:22;;;;;;;7.75;5.40;;;;;;;0.89;100.00;97914.72;1221738;75;2923194;-63
2023/12/30 08:19:55;;;;;;;6.90;5.00;;;;;;;0.76;100.00;97911.81;1223337;75;2926335;-63
2023/12/30 08:22:28;;;;;;;6.45;4.80;;;;;;;0.94;100.00;97922.34;1222526;67;2941416;-64
2023/12/30 08:25:01;;;;;;;6.10;4.50;;;;;;;1.09;100.00;97923.72;1223200;75;2925590;-62
2023/12/30 08:27:34;;;;;;;5.95;4.05;;;;;;;1.20;100.00;97927.03;1222707;75;2927045;-62
2023/12/30 08:30:12;;;;;;;5.25;4.00;;;;;;;1.21;100.00;97927.81;1222983;75;2929092;-63
2023/12/30 08:32:44;;;;;;;6.20;4.20;;;;;;;1.44;100.00;97922.47;1222208;75;2930259;-64
2023/12/30 08:35:18;;;;;;;4.30;3.55;;;;;;;1.65;100.00;97917.91;1223092;75;2926542;-62
2023/12/30 08:37:50;;;;;;;4.60;3.50;;;;;;;1.88;100.00;97919.88;1223070;75;2931136;-63
2023/12/30 08:40:23;;;;;;;4.05;2.90;;;;;;;2.05;100.00;97924.22;1223268;75;2937981;-63
2023/12/30 08:42:56;;;;;;;3.60;2.85;;;;;;;2.29;100.00;97932.31;1223055;75;2923893;-63
2023/12/30 08:45:31;;;;;;;3.40;2.50;;;;;;;2.44;100.00;97935.50;1222664;75;2930721;-64
2023/12/30 08:48:05;;;;;;;4.10;3.30;;;;;;;2.48;100.00;97938.91;1222928;75;2927161;-62
2023/12/30 08:50:37;;;;;;;5.55;4.00;;;;;;;2.70;100.00;97940.03;1222854;75;2921825;-65
2023/12/30 08:53:10;;;;;;;10.90;7.80;;;;;;;2.04;100.00;97941.56;1221971;75;2934289;-63
2023/12/30 08:55:43;;;;;;;10.70;7.95;;;;;;;2.04;100.00;97943.50;1221961;75;2922992;-60
2023/12/30 08:58:16;;;;;;;9.15;7.10;;;;;;;2.53;100.00;97939.19;1222237;75;2920548;-65
2023/12/30 09:00:52;;;;;;;8.00;6.25;;;;;;;2.96;100.00;97949.19;1223280;75;2931853;-63
2023/12/30 09:03:25;;;;;;;15.25;9.30;;;;;;;2.48;100.00;97950.47;1223754;75;2921152;-63
2023/12/30 09:05:58;;;;;;;20.05;13.70;;;;;;;1.90;100.00;97944.50;1223457;75;2925289;-62
2023/12/30 09:08:31;;;;;;;19.65;13.90;;;;;;;2.33;100.00;97952.69;1223643;75;2919352;-60
2023/12/30 09:11:04;;;;;;;18.10;13.30;;;;;;;2.55;100.00;97958.47;1222750;75;2924610;-64
2023/12/30 09:13:37;;;;;;;18.50;14.20;;;;;;;2.69;100.00;97972.88;1223553;75;2918301;-63
2023/12/30 09:16:12;;;;;;;16.40;12.00;;;;;;;3.23;100.00;97961.78;1222953;75;2935147;-64
2023/12/30 09:18:46;;;;;;;15.35;12.25;;;;;;;2.97;100.00;97966.91;1224177;75;2915008;-63
2023/12/30 09:21:19;;;;;;;18.90;13.55;;;;;;;2.60;100.00;97959.91;1223775;75;2935081;-62
2023/12/30 09:23:51;;;;;;;16.45;11.85;;;;;;;2.63;100.00;97966.44;1223008;75;2938632;-66
2023/12/30 09:26:25;;;;;;;13.55;10.55;;;;;;;3.21;100.00;97958.72;1223953;75;2919691;-66
2023/12/30 09:28:57;;;;;;;13.80;10.35;;;;;;;3.01;100.00;97966.88;1222262;75;2925700;-64
2023/12/30 09:31:33;;;;;;;13.25;10.30;;;;;;;3.06;100.00;97979.13;1224043;75;2926293;-66
2023/12/30 09:34:06;;;;;;;12.75;9.25;;;;;;;3.63;100.00;97977.91;1223624;75;2925787;-67
2023/12/30 09:36:39;;;;;;;16.40;11.20;;;;;;;3.92;100.00;97971.84;1223141;75;2924726;-66
2023/12/30 09:39:12;;;;;;;14.20;10.15;;;;;;;3.74;100.00;97986.56;1223133;75;2919522;-67
2023/12/30 09:41:45;;;;;;;15.30;10.35;;;;;;;4.13;97.76;97976.75;1219096;75;2904262;-63
2023/12/30 09:44:22;;;;;;;13.35;9.80;;;;;;;3.99;98.02;97975.19;1216679;75;2998305;-65
2023/12/30 09:46:57;;;;;;;12.60;9.45;;;;;;;4.94;93.16;97974.31;1223190;75;2920574;-62
2023/12/30 09:49:34;;;;;;;14.60;10.15;;;;;;;5.45;88.55;97969.75;1223750;75;2929814;-64
2023/12/30 09:52:08;;;;;;;12.20;8.70;;;;;;;5.75;85.10;97967.72;1221599;75;2920641;-63
2023/12/30 09:54:42;;;;;;;13.80;9.95;;;;;;;5.82;84.71;97966.69;1223941;75;2922012;-64
2023/12/30 09:57:15;;;;;;;14.55;10.70;;;;;;;6.45;79.57;97965.13;1223255;75;2929965;-65
2023/12/30 09:59:50;;;;;;;12.85;9.65;;;;;;;6.88;77.84;97961.69;1223307;75;2938877;-66
2023/12/30 10:02:27;;;;;;;14.35;10.30;;;;;;;6.72;75.01;97962.59;1218797;75;3099054;-62
2023/12/30 10:05:00;;;;;;;14.75;9.80;;;;;;;7.18;74.17;97962.16;1222985;75;2920536;-63
2023/12/30 10:07:34;;;;;;;20.35;14.85;;;;;;;7.29;75.18;97970.69;1223484;75;2922780;-67
2023/12/30 10:10:08;;;;;;;24.05;14.95;;;;;;;6.97;74.27;97969.88;1219447;75;2915128;-65
2023/12/30 10:12:40;;;;;;;17.60;13.25;;;;;;;6.94;74.42;97964.59;1219514;75;2938070;-66
2023/12/30 10:15:13;;;;;;;14.20;10.70;;;;;;;7.85;71.08;97969.72;1222632;75;2923396;-63
2023/12/30 10:17:49;;;;;;;15.20;10.75;;;;;;;9.34;67.60;97969.38;1221921;75;2925353;-67
2023/12/30 10:20:23;;;;;;;16.85;11.55;;;;;;;8.49;66.93;97971.09;1220313;75;2924332;-65
2023/12/30 10:22:56;;;;;;;14.70;10.10;;;;;;;9.39;65.69;97962.53;1221463;75;2924981;-64
2023/12/30 10:25:29;;;;;;;12.15;8.80;;;;;;;10.64;61.91;97955.81;1219913;75;2925873;-63
2023/12/30 10:28:02;;;;;;;11.90;8.65;;;;;;;12.38;55.86;97948.81;1222538;75;2928020;-63
2023/12/30 10:30:35;;;;;;;12.40;9.10;;;;;;;13.34;54.74;97945.09;1222383;75;2918676;-66
2023/12/30 10:33:15;;;;;;;9.90;7.60;;;;;;;13.80;51.50;97933.16;1222085;75;2927165;-66
2023/12/30 10:35:48;;;;;;;9.85;6.60;;;;;;;12.82;52.31;97936.81;1221622;75;2929639;-66
2023/12/30 10:38:23;;;;;;;8.75;6.25;;;;;;;13.53;50.51;97915.97;1221724;75;2914225;-66
2023/12/30 10:40:56;;;;;;;8.35;6.10;;;;;;;13.38;52.24;97924.38;1222004;75;2921525;-61
2023/12/30 10:43:29;;;;;;;8.15;6.05;;;;;;;14.78;50.07;97922.88;1222347;75;2933342;-64
2023/12/30 10:46:05;;;;;;;9.65;6.95;;;;;;;13.14;51.25;97938.41;1222793;75;2933814;-64
2023/12/30 10:48:55;;;;;;;16.20;13.60;;;;;;;13.76;49.56;97929.91;1222469;75;2919815;-64
2023/12/30 10:51:30;;;;;;;11.00;9.05;;;;;;;13.26;50.98;97922.00;1221646;75;2932638;-66
2023/12/30 10:54:09;;;;;;;13.70;9.60;;;;;;;14.89;49.38;97912.63;1223687;75;2925302;-65
2023/12/30 10:56:48;;;;;;;10.95;7.95;;;;;;;14.82;47.53;97910.34;1220654;75;2925606;-64
2023/12/30 10:59:23;;;;;;;11.05;7.85;;;;;;;15.76;46.08;97908.13;1222984;75;2933259;-66
2023/12/30 11:01:56;;;;;;;12.45;6.80;;;;;;;16.21;44.65;97907.25;1221719;75;2914990;-67
2023/12/30 11:04:32;;;;;;;6.40;5.10;;;;;;;19.09;40.85;97922.00;1223681;75;2921116;-65
2023/12/30 11:07:08;;;;;;;8.20;5.10;;;;;;;19.34;40.20;97919.88;1221339;75;2923908;-64
2023/12/30 11:09:42;;;;;;;10.50;6.85;;;;;;;17.53;41.17;97910.19;1223340;75;2924747;-64
2023/12/30 11:12:14;;;;;;;12.85;8.80;;;;;;;18.09;41.39;97912.44;1221629;75;2916544;-66
2023/12/30 11:14:47;;;;;;;11.80;9.05;;;;;;;15.83;44.48;97901.31;1223972;75;2930341;-64
2023/12/30 11:17:37;;;;;;;11.30;7.45;;;;;;;18.78;41.04;97904.78;1221245;75;2930028;-62
2023/12/30 11:20:30;;;;;;;8.25;6.25;;;;;;;19.46;40.81;97904.53;1222847;75;2934763;-64
2023/12/30 11:23:04;;;;;;;9.05;6.25;;;;;;;19.64;38.32;97899.41;1221547;75;2919641;-68
2023/12/30 11:25:40;;;;;;;8.55;6.10;;;;;;;18.59;40.34;97899.25;1224133;75;2924207;-64
2023/12/30 11:28:20;;;;;;;7.35;4.90;;;;;;;21.06;36.70;97899.59;1221776;75;2941744;-66
2023/12/30 11:31:02;;;;;;;10.20;7.60;;;;;;;17.57;41.21;97898.84;1224027;75;2925355;-65
2023/12/30 11:33:35;;;;;;;12.50;7.20;;;;;;;17.59;41.00;97902.59;1221596;75;2915332;-65
2023/12/30 11:36:12;;;;;;;13.75;8.20;;;;;;;17.09;41.98;97889.19;1223869;75;2918975;-67
2023/12/30 11:38:47;;;;;;;12.35;7.90;;;;;;;17.70;40.71;97885.13;1221403;75;2909308;-62
2023/12/30 11:41:20;;;;;;;9.15;5.95;;;;;;;18.82;39.34;97882.31;1221551;75;2923279;-68
2023/12/30 11:43:53;;;;;;;12.65;6.15;;;;;;;19.68;38.02;97875.63;1220778;75;2923660;-62
2023/12/30 11:46:26;;;;;;;13.50;7.60;;;;;;;21.52;36.13;97876.25;1222372;75;2981757;-62
2023/12/30 11:48:59;;;;;;;10.70;7.20;;;;;;;20.96;35.98;97872.78;1221540;75;2920607;-65
2023/12/30 11:51:35;;;;;;;9.45;7.05;;;;;;;20.43;37.29;97865.31;1222674;75;2909770;-65
2023/12/30 11:54:08;;;;;;;13.45;6.70;;;;;;;19.30;38.43;97866.69;1221838;75;2922871;-66
2023/12/30 11:56:41;;;;;;;10.25;6.50;;;;;;;20.80;36.73;97858.69;1220787;75;2933576;-66
2023/12/30 11:59:14;;;;;;;7.60;5.25;;;;;;;23.70;34.04;97853.50;1221620;75;2916423;-64
2023/12/30 12:01:47;;;;;;;7.30;5.05;;;;;;;21.51;34.75;97847.66;1224234;75;2924887;-65
2023/12/30 12:04:20;;;;;;;6.85;4.30;;;;;;;24.42;32.28;97846.59;1221887;75;2923475;-67
2023/12/30 12:06:57;;;;;;;5.70;3.70;;;;;;;24.64;31.94;97851.34;1224791;75;2915516;-65
2023/12/30 12:09:29;;;;;;;5.35;3.30;;;;;;;25.58;30.86;97844.53;1219347;75;3021836;-66
2023/12/30 12:12:04;;;;;;;6.45;4.15;;;;;;;24.02;31.81;97833.31;1222787;75;2917557;-66
2023/12/30 12:14:36;;;;;;;4.85;3.50;;;;;;;22.62;33.31;97838.72;1222808;75;2914259;-62
2023/12/30 12:17:10;;;;;;;5.85;4.10;;;;;;;20.59;36.43;97838.47;1223593;75;2927826;-65
2023/12/30 12:19:45;;;;;;;5.20;3.45;;;;;;;21.63;34.64;97837.69;1221830;75;2931392;-68
2023/12/30 12:22:21;;;;;;;4.95;3.90;;;;;;;21.18;35.09;97835.28;1223645;75;2924305;-67
2023/12/30 12:24:53;;;;;;;6.20;4.05;;;;;;;22.35;34.52;97830.66;1221401;75;2917321;-65
2023/12/30 12:27:27;;;;;;;6.45;4.35;;;;;;;24.01;32.20;97826.97;1223858;75;2914565;-65
2023/12/30 12:30:03;;;;;;;5.10;3.30;;;;;;;24.54;31.71;97825.28;1219431;75;2927855;-66
2023/12/30 12:32:37;;;;;;;6.50;4.30;;;;;;;22.54;33.30;97822.72;1222098;83;2922793;-66
2023/12/30 12:35:11;;;;;;;6.55;4.30;;;;;;;22.01;34.60;97828.81;1221889;75;2990882;-66
2023/12/30 12:37:46;;;;;;;7.45;4.25;;;;;;;19.29;37.12;97820.75;1224430;75;2918099;-65
2023/12/30 12:40:19;;;;;;;5.45;3.75;;;;;;;24.42;32.76;97818.63;1221245;75;2921943;-63
2023/12/30 12:42:52;;;;;;;5.10;3.30;;;;;;;24.11;32.13;97820.81;1220865;75;2944840;-64
2023/12/30 12:45:25;;;;;;;5.00;3.25;;;;;;;23.77;32.41;97819.97;1219313;75;2921270;-65
2023/12/30 12:47:58;;;;;;;4.20;2.95;;;;;;;25.62;30.12;97816.84;1197442;75;4904616;-63
2023/12/30 12:50:31;;;;;;;5.30;3.35;;;;;;;25.81;30.26;97821.88;1220805;75;2918603;-63
2023/12/30 12:53:06;;;;;;;4.30;2.85;;;;;;;26.33;29.50;97815.47;1224933;75;2919078;-64
2023/12/30 12:55:40;;;;;;;4.20;3.20;;;;;;;23.89;31.65;97820.31;1221738;75;2920871;-62
2023/12/30 12:58:13;;;;;;;4.20;2.80;;;;;;;25.55;31.29;97817.66;1224499;75;2928181;-65
2023/12/30 13:00:46;;;;;;;4.55;3.10;;;;;;;24.91;30.35;97822.06;1221709;75;2919694;-63
2023/12/30 13:03:20;;;;;;;5.60;3.75;;;;;;;23.72;31.31;97814.56;1224317;75;2928948;-65
2023/12/30 13:05:53;;;;;;;6.65;4.05;;;;;;;21.74;34.02;97822.69;1223307;75;2913807;-67
2023/12/30 13:08:29;;;;;;;4.40;3.25;;;;;;;21.89;33.48;97819.28;1225065;75;2915765;-64
2023/12/30 13:11:02;;;;;;;4.60;2.80;;;;;;;23.20;32.59;97811.28;1221629;75;2922433;-65
2023/12/30 13:13:35;;;;;;;4.80;3.30;;;;;;;22.62;32.96;97805.97;1224548;75;2919561;-64
2023/12/30 13:16:09;;;;;;;3.95;2.85;;;;;;;21.95;33.53;97814.28;1221585;75;2916422;-65
2023/12/30 13:18:42;;;;;;;5.60;3.35;;;;;;;21.60;34.08;97810.94;1224227;75;2921232;-66
2023/12/30 13:21:15;;;;;;;5.60;3.40;;;;;;;22.81;32.74;97802.84;1222202;75;2917766;-66
2023/12/30 13:23:50;;;;;;;4.70;2.15;;;;;;;23.69;32.96;97798.91;1224106;75;2926092;-65
2023/12/30 13:26:23;;;;;;;3.30;2.25;;;;;;;25.18;31.35;97791.44;1186079;75;5773578;-63
2023/12/30 13:28:56;;;;;;;3.10;1.90;;;;;;;23.94;32.11;97787.88;1224464;75;2921262;-66
2023/12/30 13:31:29;;;;;;;2.20;1.50;;;;;;;24.46;31.81;97793.78;1221770;75;2919623;-65
2023/12/30 13:34:05;;;;;;;1.85;1.50;;;;;;;25.49;30.62;97789.84;1223774;75;2937223;-64
2023/12/30 13:36:37;;;;;;;2.50;1.75;;;;;;;24.66;31.65;97783.63;1221079;75;2939390;-62
2023/12/30 13:39:13;;;;;;;1.40;1.05;;;;;;;24.34;32.13;97787.88;1223908;75;2926109;-65
2023/12/30 13:41:46;;;;;;;2.40;1.40;;;;;;;23.07;33.18;97793.41;1222169;75;2911400;-64
2023/12/30 13:44:19;;;;;;;2.35;1.50;;;;;;;22.00;34.21;97787.53;1224694;75;2916864;-64
2023/12/30 13:47:25;;;;;;;2.10;1.45;;;;;;;22.15;34.04;97792.41;1221505;75;2921626;-64
2023/12/30 13:50:09;;;;;;;1.85;1.35;;;;;;;22.07;34.45;97793.13;1224372;75;2909968;-64
2023/12/30 13:52:42;;;;;;;2.70;1.60;;;;;;;18.70;38.52;97785.38;1222467;75;2932874;-65
2023/12/30 13:55:18;;;;;;;1.75;1.20;;;;;;;17.16;41.35;97800.09;1223241;75;2922023;-65
2023/12/30 13:57:53;;;;;;;3.65;2.00;;;;;;;16.49;42.39;97791.03;1224769;75;2916836;-64
2023/12/30 14:00:26;;;;;;;3.25;2.25;;;;;;;15.62;43.52;97789.69;1222197;75;2917302;-64
2023/12/30 14:03:03;;;;;;;3.35;2.10;;;;;;;14.59;46.39;97784.81;1223412;75;2926169;-64
2023/12/30 14:05:40;;;;;;;3.45;2.05;;;;;;;14.31;47.31;97788.25;1220317;75;2931781;-63
2023/12/30 14:08:19;;;;;;;3.55;2.35;;;;;;;14.02;48.84;97787.44;1223534;67;2918504;-65
2023/12/30 14:10:55;;;;;;;2.30;1.60;;;;;;;13.69;49.33;97788.06;1221918;75;2917402;-64
2023/12/30 14:13:27;;;;;;;2.10;1.60;;;;;;;13.30;50.50;97793.31;1224474;67;2915529;-64
2023/12/30 14:16:00;;;;;;;3.10;1.90;;;;;;;12.58;50.75;97795.78;1222336;75;2922526;-64
2023/12/30 14:18:33;;;;;;;4.40;2.10;;;;;;;12.38;51.46;97795.81;1225108;75;2911773;-63
2023/12/30 14:21:06;;;;;;;2.10;1.60;;;;;;;12.05;52.20;97783.28;1220885;75;2919381;-62
2023/12/30 14:23:40;;;;;;;2.85;1.90;;;;;;;11.91;53.75;97792.34;1224636;75;2948408;-63
2023/12/30 14:26:17;;;;;;;3.15;1.85;;;;;;;11.79;54.26;97790.69;1223193;75;2907632;-65
2023/12/30 14:28:50;;;;;;;2.75;1.90;;;;;;;11.65;54.99;97786.75;1224360;75;2952595;-64
2023/12/30 14:31:22;;;;;;;2.65;1.55;;;;;;;11.39;54.79;97786.66;1222206;75;2918139;-62
2023/12/30 14:33:55;;;;;;;3.05;1.75;;;;;;;11.12;55.54;97791.28;1222266;75;2912847;-65
2023/12/30 14:36:28;;;;;;;4.40;2.70;;;;;;;10.17;57.85;97771.28;1221972;75;2922399;-63
2023/12/30 14:39:01;;;;;;;5.20;3.00;;;;;;;10.32;58.14;97782.25;1223553;75;2901785;-63
2023/12/30 14:41:37;;;;;;;3.75;2.80;;;;;;;9.99;59.49;97786.63;1221362;75;2914599;-66
2023/12/30 14:44:10;;;;;;;5.45;2.75;;;;;;;9.99;59.69;97785.88;1223298;75;2928740;-63
2023/12/30 14:46:43;;;;;;;4.05;2.50;;;;;;;10.00;59.38;97790.13;1222348;75;2923056;-65
2023/12/30 14:49:16;;;;;;;3.55;2.20;;;;;;;10.05;59.81;97786.72;1224145;75;2915598;-62
2023/12/30 14:51:49;;;;;;;5.20;3.70;;;;;;;9.80;59.74;97788.75;1222468;75;2913595;-63
2023/12/30 14:54:22;;;;;;;5.65;3.50;;;;;;;9.28;61.75;97779.97;1224867;75;2933970;-64
2023/12/30 14:56:58;;;;;;;4.45;3.10;;;;;;;9.30;62.46;97779.50;1221704;75;2926573;-64
2023/12/30 14:59:31;;;;;;;3.85;2.30;;;;;;;8.96;63.26;97790.44;1224215;75;2912907;-62
2023/12/30 15:02:04;;;;;;;3.95;3.05;;;;;;;8.98;63.62;97791.97;1222841;75;2915121;-62
2023/12/30 15:04:37;;;;;;;5.00;2.75;;;;;;;8.90;64.35;97795.03;1225338;75;2926914;-64
2023/12/30 15:07:09;;;;;;;3.65;2.55;;;;;;;8.47;65.16;97794.22;1222631;75;2919142;-61
2023/12/30 15:09:42;;;;;;;2.75;2.10;;;;;;;8.43;65.90;97795.59;1224453;75;2910897;-63
2023/12/30 15:12:21;;;;;;;3.75;2.85;;;;;;;8.27;67.61;97800.16;1222115;75;2954257;-63
2023/12/30 15:14:54;;;;;;;4.35;3.00;;;;;;;8.19;67.91;97795.44;1224455;75;2911256;-64
2023/12/30 15:17:27;;;;;;;3.85;2.35;;;;;;;7.88;69.25;97790.91;1221394;75;2915135;-63
2023/12/30 15:20:01;;;;;;;4.70;2.90;;;;;;;7.73;69.78;97796.19;1223675;75;2926942;-62
2023/12/30 15:22:34;;;;;;;5.50;3.65;;;;;;;7.44;72.38;97791.16;1222661;75;2918296;-64
2023/12/30 15:25:10;;;;;;;4.40;3.15;;;;;;;7.43;72.41;97797.81;1224305;75;2922102;-66
2023/12/30 15:27:51;;;;;;;6.00;3.30;;;;;;;7.35;72.28;97799.31;1222445;75;2912183;-63
2023/12/30 15:30:24;;;;;;;3.95;2.85;;;;;;;7.27;73.01;97803.53;1223004;75;2914792;-62
2023/12/30 15:32:58;;;;;;;5.20;3.10;;;;;;;6.98;74.39;97793.75;1221621;75;2922663;-66
2023/12/30 15:35:31;;;;;;;3.65;2.75;;;;;;;6.92;74.22;97795.53;1223447;75;2936468;-62
2023/12/30 15:38:04;;;;;;;4.95;3.15;;;;;;;6.79;74.74;97793.66;1222312;75;2936075;-62
2023/12/30 15:40:40;;;;;;;5.15;3.20;;;;;;;6.72;75.36;97804.81;1224350;75;2925730;-61
2023/12/30 15:43:16;;;;;;;4.90;3.20;;;;;;;6.64;75.66;97803.56;1223530;75;2923639;-63
2023/12/30 15:45:48;;;;;;;8.50;5.55;;;;;;;6.32;79.44;97800.03;1224366;75;2914456;-65
2023/12/30 15:48:21;;;;;;;10.80;7.20;;;;;;;6.13;81.34;97795.69;1222482;75;2915809;-62
2023/12/30 15:50:54;;;;;;;11.50;6.55;;;;;;;6.05;83.05;97791.69;1223721;75;2920235;-62
2023/12/30 15:53:27;;;;;;;9.50;6.25;;;;;;;5.94;82.29;97792.84;1220489;75;2917796;-62
2023/12/30 15:56:00;;;;;;;8.05;5.20;;;;;;;5.87;82.32;97795.78;1223694;75;2920804;-63
2023/12/30 15:58:36;;;;;;;9.05;4.80;;;;;;;5.87;81.88;97806.63;1223209;75;2930591;-64
2023/12/30 16:01:09;;;;;;;7.45;4.25;;;;;;;5.71;82.98;97801.34;1222216;75;2922036;-68
2023/12/30 16:03:42;;;;;;;6.50;4.20;;;;;;;5.71;84.24;97809.50;1222338;75;2918339;-61
2023/12/30 16:06:15;;;;;;;5.85;4.05;;;;;;;5.50;85.12;97805.53;1222528;75;2930587;-64
2023/12/30 16:08:48;;;;;;;7.15;4.50;;;;;;;5.41;86.73;97819.00;1222143;75;2921410;-62
2023/12/30 16:11:21;;;;;;;5.65;4.05;;;;;;;5.34;85.42;97814.59;1223180;75;2921785;-63
2023/12/30 16:13:57;;;;;;;5.60;3.60;;;;;;;5.30;86.70;97816.66;1218756;75;2923249;-64
2023/12/30 16:16:29;;;;;;;6.25;4.30;;;;;;;5.14;89.25;97822.94;1222953;75;2933144;-63
2023/12/30 16:19:02;;;;;;;6.00;4.25;;;;;;;5.12;90.24;97828.03;1220239;67;2918734;-63
2023/12/30 16:21:35;;;;;;;6.25;4.30;;;;;;;4.95;94.20;97821.94;1223071;75;2923257;-62
2023/12/30 16:24:09;;;;;;;6.30;4.60;;;;;;;4.86;92.74;97819.16;1221642;75;2929616;-65
2023/12/30 16:26:42;;;;;;;6.45;4.60;;;;;;;4.74;92.68;97822.59;1222241;75;2930364;-61
2023/12/30 16:29:17;;;;;;;6.55;4.65;;;;;;;4.61;94.61;97833.41;1220635;75;2919428;-63
2023/12/30 16:31:52;;;;;;;5.25;4.20;;;;;;;4.53;95.52;97832.13;1222290;75;2938113;-64
2023/12/30 16:34:26;;;;;;;5.80;4.40;;;;;;;4.38;99.00;97829.03;1220894;75;2930818;-62
2023/12/30 16:36:59;;;;;;;6.30;4.55;;;;;;;4.33;98.81;97821.41;1222517;75;2924977;-62
2023/12/30 16:39:31;;;;;;;5.70;3.90;;;;;;;4.38;95.89;97815.50;1220397;75;2916519;-62
2023/12/30 16:42:04;;;;;;;5.40;3.95;;;;;;;4.19;100.00;97825.28;1222004;75;2924966;-62
2023/12/30 16:44:40;;;;;;;4.75;4.05;;;;;;;4.05;100.00;97831.84;1219579;75;2916977;-62
2023/12/30 16:47:13;;;;;;;5.30;4.25;;;;;;;3.92;100.00;97823.66;1223440;75;2918400;-64
2023/12/30 16:49:46;;;;;;;5.85;4.50;;;;;;;3.92;100.00;97831.78;1219632;75;2920448;-63
2023/12/30 16:52:19;;;;;;;6.70;5.45;;;;;;;3.88;100.00;97833.06;1222764;75;2922733;-62
2023/12/30 16:54:52;;;;;;;7.90;5.00;;;;;;;3.80;100.00;97827.06;1219373;75;2931037;-63
2023/12/30 16:57:25;;;;;;;6.00;4.90;;;;;;;3.66;100.00;97833.59;1221913;75;2922397;-65
2023/12/30 17:00:01;;;;;;;14.85;10.80;;;;;;;3.50;100.00;97828.94;1219720;75;2923360;-64
2023/12/30 17:02:33;;;;;;;10.70;8.30;;;;;;;3.52;100.00;97834.72;1222665;75;2921774;-65
2023/12/30 17:05:07;;;;;;;9.80;7.70;;;;;;;3.46;100.00;97833.69;1219347;75;2923746;-65
2023/12/30 17:07:40;;;;;;;10.00;8.05;;;;;;;3.34;100.00;97837.06;1221837;75;2932453;-64
2023/12/30 17:10:13;;;;;;;9.70;7.70;;;;;;;3.31;100.00;97837.91;1219234;75;2916266;-63
2023/12/30 17:12:46;;;;;;;9.95;7.65;;;;;;;3.30;100.00;97834.47;1223013;75;2919217;-64
2023/12/30 17:15:21;;;;;;;9.45;7.35;;;;;;;3.23;100.00;97844.69;1220407;75;2927110;-66
2023/12/30 17:17:54;;;;;;;9.90;7.00;;;;;;;3.20;100.00;97840.88;1222465;75;2921341;-63
2023/12/30 17:20:27;;;;;;;8.90;6.70;;;;;;;2.96;100.00;97843.72;1220133;75;2926362;-63
2023/12/30 17:23:00;;;;;;;13.50;8.75;;;;;;;2.86;100.00;97852.81;1222317;75;2924009;-65
2023/12/30 17:25:33;;;;;;;11.00;8.80;;;;;;;2.93;100.00;97841.06;1222432;75;2926324;-63
2023/12/30 17:28:08;;;;;;;12.40;9.85;;;;;;;2.85;100.00;97848.59;1222164;75;2924643;-63
2023/12/30 17:30:43;;;;;;;15.40;11.20;;;;;;;2.54;100.00;97843.41;1221649;75;2922411;-62
2023/12/30 17:33:16;;;;;;;23.05;16.85;;;;;;;2.32;100.00;97847.72;1220786;75;2920771;-65
2023/12/30 17:35:49;;;;;;;19.40;14.50;;;;;;;2.37;100.00;97844.53;1221867;75;2923016;-66
2023/12/30 17:38:22;;;;;;;18.85;13.45;;;;;;;2.47;100.00;97842.81;1220961;75;2918044;-63
2023/12/30 17:40:55;;;;;;;14.10;10.95;;;;;;;2.68;100.00;97850.47;1222207;75;2928708;-65
2023/12/30 17:43:28;;;;;;;11.10;8.75;;;;;;;2.66;100.00;97846.66;1219922;75;2914849;-64
2023/12/30 17:46:03;;;;;;;10.00;7.95;;;;;;;2.63;100.00;97848.28;1220488;75;2923649;-61
2023/12/30 17:48:36;;;;;;;10.75;8.15;;;;;;;2.42;100.00;97851.41;1220461;75;2923110;-61
2023/12/30 17:51:09;;;;;;;8.70;7.10;;;;;;;2.57;100.00;97847.22;1221514;75;2920168;-64
2023/12/30 17:53:42;;;;;;;8.00;6.25;;;;;;;2.55;100.00;97846.91;1220268;75;2921698;-62
2023/12/30 17:56:15;;;;;;;7.30;5.65;;;;;;;2.56;100.00;97853.81;1222520;75;2924058;-64
2023/12/30 17:58:49;;;;;;;7.25;5.75;;;;;;;2.50;100.00;97855.47;1218593;75;2929788;-62
2023/12/30 18:01:25;;;;;;;6.70;5.30;;;;;;;2.46;100.00;97855.56;1221480;75;2923372;-64
2023/12/30 18:03:58;;;;;;;6.00;4.80;;;;;;;2.37;100.00;97852.63;1221284;68;2924080;-63
2023/12/30 18:06:31;;;;;;;9.20;7.45;;;;;;;2.26;100.00;97857.47;1221902;75;2922709;-64
2023/12/30 18:09:05;;;;;;;16.00;12.20;;;;;;;2.12;100.00;97853.88;1221742;75;2925450;-63
2023/12/30 18:11:39;;;;;;;11.90;9.00;;;;;;;2.13;100.00;97855.38;1220834;75;2938690;-65
2023/12/30 18:14:13;;;;;;;9.75;8.20;;;;;;;2.10;100.00;97855.47;1219909;75;2918974;-65
2023/12/30 18:16:49;;;;;;;11.50;9.30;;;;;;;2.00;100.00;97849.09;1222042;75;2918942;-62
2023/12/30 18:19:22;;;;;;;9.95;8.25;;;;;;;1.97;100.00;97846.44;1221237;75;2922066;-65
2023/12/30 18:21:58;;;;;;;9.75;7.60;;;;;;;1.97;100.00;97855.28;1223380;75;2928890;-64
2023/12/30 18:24:31;;;;;;;12.95;8.90;;;;;;;1.62;100.00;97853.97;1221702;75;2929020;-63
2023/12/30 18:27:04;;;;;;;21.75;17.35;;;;;;;1.38;100.00;97864.00;1221564;75;2917671;-62
2023/12/30 18:29:37;;;;;;;19.25;15.60;;;;;;;1.52;100.00;97861.06;1221439;83;2939225;-63
2023/12/30 18:32:12;;;;;;;16.30;13.45;;;;;;;1.62;100.00;97864.78;1221915;75;2925230;-63
2023/12/30 18:34:45;;;;;;;13.30;11.90;;;;;;;1.36;100.00;97861.69;1222214;75;2917977;-64
2023/12/30 18:37:19;;;;;;;12.60;10.30;;;;;;;1.48;100.00;97865.75;1221866;75;2927779;-65
2023/12/30 18:39:53;;;;;;;11.75;8.95;;;;;;;1.43;100.00;97866.22;1222308;75;2919752;-65
2023/12/30 18:42:26;;;;;;;10.60;8.25;;;;;;;1.31;100.00;97861.41;1209973;75;3260478;-64
2023/12/30 18:44:59;;;;;;;10.70;9.10;;;;;;;1.30;100.00;97866.03;1222357;75;2917739;-63
2023/12/30 18:47:34;;;;;;;11.05;8.90;;;;;;;1.31;100.00;97859.47;1222880;75;2923046;-65
2023/12/30 18:50:09;;;;;;;10.20;8.45;;;;;;;1.27;100.00;97856.03;1220243;75;2925484;-64
2023/12/30 18:52:42;;;;;;;7.85;6.75;;;;;;;1.32;100.00;97855.56;1221630;75;2936794;-64
2023/12/30 18:55:18;;;;;;;8.40;6.70;;;;;;;1.27;100.00;97851.44;1220047;75;2884968;-64
2023/12/30 18:57:50;;;;;;;7.15;5.90;;;;;;;1.28;100.00;97855.66;1221312;75;2916933;-63